sensor_id;sensor_type;location;lat;lon;timestamp;P1;durP1;ratioP1;P2;durP2;ratioP2
40787;SDS011;26497;52.494;7.546;2023-12-20T00:00:49;178.75;;;166.82;;
40787;SDS011;26497;52.494;7.546;2023-12-20T00:03:16;179.38;;;166.88;;
40787;SDS011;26497;52.494;7.546;2023-12-20T00:05:44;183.52;;;171.80;;
40787;SDS011;26497;52.494;7.546;2023-12-20T00:08:11;182.70;;;170.35;;
40787;SDS011;26497;52.494;7.546;2023-12-20T00:10:38;192.88;;;178.95;;
40787;SDS011;26497;52.494;7.546;2023-12-20T00:13:08;197.00;;;182.93;;
40787;SDS011;26497;52.494;7.546;2023-12-20T00:15:37;198.32;;;184.85;;
40787;SDS011;26497;52.494;7.546;2023-12-20T00:18:05;197.73;;;184.93;;
40787;SDS011;26497;52.494;7.546;2023-12-20T00:20:33;194.68;;;182.55;;
40787;SDS011;26497;52.494;7.546;2023-12-20T00:23:01;192.23;;;180.60;;
40787;SDS011;26497;52.494;7.546;2023-12-20T00:25:30;180.45;;;168.43;;
40787;SDS011;26497;52.494;7.546;2023-12-20T00:27:57;185.88;;;172.80;;
40787;SDS011;26497;52.494;7.546;2023-12-20T00:30:25;187.10;;;174.88;;
40787;SDS011;26497;52.494;7.546;2023-12-20T00:32:52;194.80;;;182.52;;
40787;SDS011;26497;52.494;7.546;2023-12-20T00:35:20;181.63;;;169.85;;
40787;SDS011;26497;52.494;7.546;2023-12-20T00:37:48;183.88;;;172.23;;
40787;SDS011;26497;52.494;7.546;2023-12-20T00:40:18;188.82;;;174.90;;
40787;SDS011;26497;52.494;7.546;2023-12-20T00:42:47;185.63;;;172.18;;
40787;SDS011;26497;52.494;7.546;2023-12-20T00:45:14;190.32;;;176.25;;
40787;SDS011;26497;52.494;7.546;2023-12-20T00:47:41;183.32;;;170.90;;
40787;SDS011;26497;52.494;7.546;2023-12-20T00:50:10;188.55;;;175.70;;
40787;SDS011;26497;52.494;7.546;2023-12-20T00:52:39;190.95;;;178.55;;
40787;SDS011;26497;52.494;7.546;2023-12-20T00:55:09;186.02;;;174.05;;
40787;SDS011;26497;52.494;7.546;2023-12-20T00:57:36;191.90;;;178.70;;
40787;SDS011;26497;52.494;7.546;2023-12-20T01:00:04;193.10;;;179.57;;
40787;SDS011;26497;52.494;7.546;2023-12-20T01:02:34;197.83;;;183.63;;
40787;SDS011;26497;52.494;7.546;2023-12-20T01:05:02;192.40;;;178.57;;
40787;SDS011;26497;52.494;7.546;2023-12-20T01:07:32;198.70;;;185.25;;
40787;SDS011;26497;52.494;7.546;2023-12-20T01:10:00;190.10;;;175.55;;
40787;SDS011;26497;52.494;7.546;2023-12-20T01:12:28;190.63;;;177.02;;
40787;SDS011;26497;52.494;7.546;2023-12-20T01:14:55;198.13;;;182.52;;
40787;SDS011;26497;52.494;7.546;2023-12-20T01:17:24;197.73;;;183.73;;
40787;SDS011;26497;52.494;7.546;2023-12-20T01:19:53;191.13;;;177.57;;
40787;SDS011;26497;52.494;7.546;2023-12-20T01:22:20;189.35;;;175.88;;
40787;SDS011;26497;52.494;7.546;2023-12-20T01:24:47;206.02;;;190.75;;
40787;SDS011;26497;52.494;7.546;2023-12-20T01:27:17;210.27;;;194.70;;
40787;SDS011;26497;52.494;7.546;2023-12-20T01:29:44;195.60;;;183.02;;
40787;SDS011;26497;52.494;7.546;2023-12-20T01:32:11;210.82;;;193.30;;
40787;SDS011;26497;52.494;7.546;2023-12-20T01:34:39;208.35;;;192.15;;
40787;SDS011;26497;52.494;7.546;2023-12-20T01:37:06;205.88;;;190.57;;
40787;SDS011;26497;52.494;7.546;2023-12-20T01:39:34;207.05;;;192.98;;
40787;SDS011;26497;52.494;7.546;2023-12-20T01:42:01;209.45;;;194.40;;
40787;SDS011;26497;52.494;7.546;2023-12-20T01:44:31;205.77;;;191.50;;
40787;SDS011;26497;52.494;7.546;2023-12-20T01:46:58;208.95;;;194.80;;
40787;SDS011;26497;52.494;7.546;2023-12-20T01:49:26;208.52;;;192.20;;
40787;SDS011;26497;52.494;7.546;2023-12-20T01:51:54;214.77;;;199.27;;
40787;SDS011;26497;52.494;7.546;2023-12-20T01:54:22;220.93;;;204.75;;
40787;SDS011;26497;52.494;7.546;2023-12-20T01:56:49;220.60;;;205.98;;
40787;SDS011;26497;52.494;7.546;2023-12-20T01:59:17;218.52;;;203.82;;
40787;SDS011;26497;52.494;7.546;2023-12-20T02:01:50;208.80;;;192.50;;
40787;SDS011;26497;52.494;7.546;2023-12-20T02:04:17;205.85;;;192.65;;
40787;SDS011;26497;52.494;7.546;2023-12-20T02:06:45;211.50;;;195.65;;
40787;SDS011;26497;52.494;7.546;2023-12-20T02:09:18;204.30;;;189.82;;
40787;SDS011;26497;52.494;7.546;2023-12-20T02:11:45;211.13;;;196.95;;
40787;SDS011;26497;52.494;7.546;2023-12-20T02:14:12;208.68;;;193.07;;
40787;SDS011;26497;52.494;7.546;2023-12-20T02:16:39;208.35;;;194.70;;
40787;SDS011;26497;52.494;7.546;2023-12-20T02:19:09;217.13;;;202.05;;
40787;SDS011;26497;52.494;7.546;2023-12-20T02:21:42;210.57;;;195.50;;
40787;SDS011;26497;52.494;7.546;2023-12-20T02:24:09;216.65;;;202.02;;
40787;SDS011;26497;52.494;7.546;2023-12-20T02:26:36;229.75;;;212.93;;
40787;SDS011;26497;52.494;7.546;2023-12-20T02:29:03;224.77;;;207.98;;
40787;SDS011;26497;52.494;7.546;2023-12-20T02:31:30;226.25;;;209.82;;
40787;SDS011;26497;52.494;7.546;2023-12-20T02:33:57;233.35;;;217.88;;
40787;SDS011;26497;52.494;7.546;2023-12-20T02:36:24;234.75;;;218.65;;
40787;SDS011;26497;52.494;7.546;2023-12-20T02:38:53;228.27;;;212.52;;
40787;SDS011;26497;52.494;7.546;2023-12-20T02:41:21;225.15;;;210.55;;
40787;SDS011;26497;52.494;7.546;2023-12-20T02:43:48;232.38;;;216.27;;
40787;SDS011;26497;52.494;7.546;2023-12-20T02:46:15;224.10;;;207.60;;
40787;SDS011;26497;52.494;7.546;2023-12-20T02:48:44;220.63;;;205.85;;
40787;SDS011;26497;52.494;7.546;2023-12-20T02:51:12;218.80;;;204.20;;
40787;SDS011;26497;52.494;7.546;2023-12-20T02:53:39;219.15;;;202.95;;
40787;SDS011;26497;52.494;7.546;2023-12-20T02:56:08;226.75;;;209.98;;
40787;SDS011;26497;52.494;7.546;2023-12-20T02:58:35;218.68;;;202.35;;
40787;SDS011;26497;52.494;7.546;2023-12-20T03:01:03;219.50;;;204.70;;
40787;SDS011;26497;52.494;7.546;2023-12-20T03:03:31;219.48;;;203.23;;
40787;SDS011;26497;52.494;7.546;2023-12-20T03:05:59;222.90;;;205.65;;
40787;SDS011;26497;52.494;7.546;2023-12-20T03:08:26;218.80;;;202.43;;
40787;SDS011;26497;52.494;7.546;2023-12-20T03:10:55;223.75;;;209.60;;
40787;SDS011;26497;52.494;7.546;2023-12-20T03:13:23;232.10;;;213.85;;
40787;SDS011;26497;52.494;7.546;2023-12-20T03:15:52;236.93;;;219.02;;
40787;SDS011;26497;52.494;7.546;2023-12-20T03:18:19;237.18;;;221.25;;
40787;SDS011;26497;52.494;7.546;2023-12-20T03:20:46;255.25;;;235.57;;
40787;SDS011;26497;52.494;7.546;2023-12-20T03:23:15;255.68;;;234.60;;
40787;SDS011;26497;52.494;7.546;2023-12-20T03:25:43;238.63;;;220.85;;
40787;SDS011;26497;52.494;7.546;2023-12-20T03:28:10;248.20;;;230.40;;
40787;SDS011;26497;52.494;7.546;2023-12-20T03:30:42;255.57;;;236.73;;
40787;SDS011;26497;52.494;7.546;2023-12-20T03:33:09;251.05;;;232.73;;
40787;SDS011;26497;52.494;7.546;2023-12-20T03:35:37;241.00;;;223.30;;
40787;SDS011;26497;52.494;7.546;2023-12-20T03:38:04;243.52;;;226.68;;
40787;SDS011;26497;52.494;7.546;2023-12-20T03:40:31;245.75;;;226.00;;
40787;SDS011;26497;52.494;7.546;2023-12-20T03:42:58;238.98;;;220.70;;
40787;SDS011;26497;52.494;7.546;2023-12-20T03:45:25;239.60;;;222.65;;
40787;SDS011;26497;52.494;7.546;2023-12-20T03:47:54;242.88;;;225.60;;
40787;SDS011;26497;52.494;7.546;2023-12-20T03:50:21;241.52;;;223.60;;
40787;SDS011;26497;52.494;7.546;2023-12-20T03:52:51;249.93;;;230.40;;
40787;SDS011;26497;52.494;7.546;2023-12-20T03:55:18;242.75;;;222.10;;
40787;SDS011;26497;52.494;7.546;2023-12-20T03:57:48;245.93;;;226.10;;
40787;SDS011;26497;52.494;7.546;2023-12-20T04:00:15;223.27;;;207.10;;
40787;SDS011;26497;52.494;7.546;2023-12-20T04:02:42;237.70;;;219.13;;
40787;SDS011;26497;52.494;7.546;2023-12-20T04:05:11;235.70;;;217.63;;
40787;SDS011;26497;52.494;7.546;2023-12-20T04:07:39;231.15;;;213.55;;
40787;SDS011;26497;52.494;7.546;2023-12-20T04:10:08;231.68;;;214.90;;
40787;SDS011;26497;52.494;7.546;2023-12-20T04:12:37;236.57;;;217.23;;
40787;SDS011;26497;52.494;7.546;2023-12-20T04:15:04;235.32;;;215.18;;
40787;SDS011;26497;52.494;7.546;2023-12-20T04:17:34;239.68;;;220.40;;
40787;SDS011;26497;52.494;7.546;2023-12-20T04:20:01;228.32;;;210.90;;
40787;SDS011;26497;52.494;7.546;2023-12-20T04:22:31;232.68;;;215.77;;
40787;SDS011;26497;52.494;7.546;2023-12-20T04:24:58;234.15;;;214.80;;
40787;SDS011;26497;52.494;7.546;2023-12-20T04:27:25;234.38;;;215.80;;
40787;SDS011;26497;52.494;7.546;2023-12-20T04:29:52;225.45;;;208.60;;
40787;SDS011;26497;52.494;7.546;2023-12-20T04:32:19;233.40;;;213.77;;
40787;SDS011;26497;52.494;7.546;2023-12-20T04:34:46;224.48;;;208.15;;
40787;SDS011;26497;52.494;7.546;2023-12-20T04:37:13;229.57;;;210.55;;
40787;SDS011;26497;52.494;7.546;2023-12-20T04:39:42;234.77;;;215.10;;
40787;SDS011;26497;52.494;7.546;2023-12-20T04:42:09;231.38;;;211.90;;
40787;SDS011;26497;52.494;7.546;2023-12-20T04:44:36;222.57;;;205.98;;
40787;SDS011;26497;52.494;7.546;2023-12-20T04:47:03;219.43;;;203.35;;
40787;SDS011;26497;52.494;7.546;2023-12-20T04:49:30;219.38;;;202.65;;
40787;SDS011;26497;52.494;7.546;2023-12-20T04:51:57;224.07;;;204.88;;
40787;SDS011;26497;52.494;7.546;2023-12-20T04:54:25;231.23;;;213.07;;
40787;SDS011;26497;52.494;7.546;2023-12-20T04:56:53;232.25;;;214.65;;
40787;SDS011;26497;52.494;7.546;2023-12-20T04:59:20;233.18;;;216.25;;
40787;SDS011;26497;52.494;7.546;2023-12-20T05:01:47;229.90;;;210.95;;
40787;SDS011;26497;52.494;7.546;2023-12-20T05:04:14;219.10;;;201.60;;
40787;SDS011;26497;52.494;7.546;2023-12-20T05:06:41;217.70;;;199.68;;
40787;SDS011;26497;52.494;7.546;2023-12-20T05:09:08;230.30;;;210.45;;
40787;SDS011;26497;52.494;7.546;2023-12-20T05:11:35;220.20;;;203.23;;
40787;SDS011;26497;52.494;7.546;2023-12-20T05:14:04;225.68;;;207.57;;
40787;SDS011;26497;52.494;7.546;2023-12-20T05:16:31;227.40;;;209.13;;
40787;SDS011;26497;52.494;7.546;2023-12-20T05:18:58;225.50;;;208.52;;
40787;SDS011;26497;52.494;7.546;2023-12-20T05:21:27;226.10;;;210.63;;
40787;SDS011;26497;52.494;7.546;2023-12-20T05:23:55;219.48;;;199.82;;
40787;SDS011;26497;52.494;7.546;2023-12-20T05:26:22;229.57;;;209.70;;
40787;SDS011;26497;52.494;7.546;2023-12-20T05:28:50;220.38;;;203.43;;
40787;SDS011;26497;52.494;7.546;2023-12-20T05:31:18;227.15;;;209.35;;
40787;SDS011;26497;52.494;7.546;2023-12-20T05:33:45;227.02;;;209.23;;
40787;SDS011;26497;52.494;7.546;2023-12-20T05:36:12;221.63;;;206.13;;
40787;SDS011;26497;52.494;7.546;2023-12-20T05:38:40;229.18;;;211.70;;
40787;SDS011;26497;52.494;7.546;2023-12-20T05:41:07;225.63;;;209.23;;
40787;SDS011;26497;52.494;7.546;2023-12-20T05:43:34;220.32;;;204.75;;
40787;SDS011;26497;52.494;7.546;2023-12-20T05:46:01;228.25;;;210.70;;
40787;SDS011;26497;52.494;7.546;2023-12-20T05:48:30;230.82;;;213.88;;
40787;SDS011;26497;52.494;7.546;2023-12-20T05:50:57;237.70;;;217.48;;
40787;SDS011;26497;52.494;7.546;2023-12-20T05:53:24;234.93;;;215.98;;
40787;SDS011;26497;52.494;7.546;2023-12-20T05:55:51;234.73;;;217.05;;
40787;SDS011;26497;52.494;7.546;2023-12-20T05:58:18;237.15;;;219.50;;
40787;SDS011;26497;52.494;7.546;2023-12-20T06:00:45;232.93;;;215.13;;
40787;SDS011;26497;52.494;7.546;2023-12-20T06:03:13;229.55;;;212.32;;
40787;SDS011;26497;52.494;7.546;2023-12-20T06:05:42;233.23;;;214.93;;
40787;SDS011;26497;52.494;7.546;2023-12-20T06:08:10;231.95;;;214.75;;
40787;SDS011;26497;52.494;7.546;2023-12-20T06:10:37;228.32;;;210.38;;
40787;SDS011;26497;52.494;7.546;2023-12-20T06:13:05;223.98;;;206.98;;
40787;SDS011;26497;52.494;7.546;2023-12-20T06:15:32;223.77;;;207.18;;
40787;SDS011;26497;52.494;7.546;2023-12-20T06:18:01;225.40;;;207.63;;
40787;SDS011;26497;52.494;7.546;2023-12-20T06:20:28;225.30;;;206.88;;
40787;SDS011;26497;52.494;7.546;2023-12-20T06:22:57;222.45;;;204.05;;
40787;SDS011;26497;52.494;7.546;2023-12-20T06:25:24;225.23;;;208.07;;
40787;SDS011;26497;52.494;7.546;2023-12-20T06:27:51;225.27;;;207.80;;
40787;SDS011;26497;52.494;7.546;2023-12-20T06:30:18;216.68;;;201.63;;
40787;SDS011;26497;52.494;7.546;2023-12-20T06:32:45;215.63;;;200.10;;
40787;SDS011;26497;52.494;7.546;2023-12-20T06:35:13;222.15;;;205.00;;
40787;SDS011;26497;52.494;7.546;2023-12-20T06:37:40;218.88;;;200.32;;
40787;SDS011;26497;52.494;7.546;2023-12-20T06:40:09;209.13;;;193.88;;
40787;SDS011;26497;52.494;7.546;2023-12-20T06:42:37;214.57;;;198.68;;
40787;SDS011;26497;52.494;7.546;2023-12-20T06:45:04;217.60;;;199.32;;
40787;SDS011;26497;52.494;7.546;2023-12-20T06:47:32;220.60;;;204.45;;
40787;SDS011;26497;52.494;7.546;2023-12-20T06:49:59;217.70;;;200.63;;
40787;SDS011;26497;52.494;7.546;2023-12-20T06:52:26;214.63;;;198.13;;
40787;SDS011;26497;52.494;7.546;2023-12-20T06:54:53;203.38;;;187.35;;
40787;SDS011;26497;52.494;7.546;2023-12-20T06:57:22;210.15;;;194.35;;
40787;SDS011;26497;52.494;7.546;2023-12-20T06:59:51;210.07;;;193.32;;
40787;SDS011;26497;52.494;7.546;2023-12-20T07:02:18;214.20;;;197.20;;
40787;SDS011;26497;52.494;7.546;2023-12-20T07:04:47;208.38;;;193.15;;
40787;SDS011;26497;52.494;7.546;2023-12-20T07:07:14;206.60;;;190.18;;
40787;SDS011;26497;52.494;7.546;2023-12-20T07:09:41;210.80;;;193.55;;
40787;SDS011;26497;52.494;7.546;2023-12-20T07:12:08;205.80;;;188.85;;
40787;SDS011;26497;52.494;7.546;2023-12-20T07:14:39;210.23;;;194.82;;
40787;SDS011;26497;52.494;7.546;2023-12-20T07:17:07;213.00;;;195.13;;
40787;SDS011;26497;52.494;7.546;2023-12-20T07:19:36;210.48;;;194.00;;
40787;SDS011;26497;52.494;7.546;2023-12-20T07:22:03;217.32;;;199.30;;
40787;SDS011;26497;52.494;7.546;2023-12-20T07:24:31;209.18;;;192.60;;
40787;SDS011;26497;52.494;7.546;2023-12-20T07:26:58;215.27;;;195.25;;
40787;SDS011;26497;52.494;7.546;2023-12-20T07:29:25;217.95;;;200.82;;
40787;SDS011;26497;52.494;7.546;2023-12-20T07:31:54;215.18;;;198.85;;
40787;SDS011;26497;52.494;7.546;2023-12-20T07:34:21;214.55;;;199.02;;
40787;SDS011;26497;52.494;7.546;2023-12-20T07:36:48;219.38;;;202.90;;
40787;SDS011;26497;52.494;7.546;2023-12-20T07:39:15;211.43;;;195.80;;
40787;SDS011;26497;52.494;7.546;2023-12-20T07:41:43;210.85;;;194.90;;
40787;SDS011;26497;52.494;7.546;2023-12-20T07:44:10;212.10;;;195.77;;
40787;SDS011;26497;52.494;7.546;2023-12-20T07:46:37;212.10;;;196.05;;
40787;SDS011;26497;52.494;7.546;2023-12-20T07:49:06;209.30;;;192.85;;
40787;SDS011;26497;52.494;7.546;2023-12-20T07:51:33;200.90;;;185.63;;
40787;SDS011;26497;52.494;7.546;2023-12-20T07:54:00;202.18;;;187.15;;
40787;SDS011;26497;52.494;7.546;2023-12-20T07:56:28;192.10;;;177.88;;
40787;SDS011;26497;52.494;7.546;2023-12-20T07:58:55;195.10;;;181.35;;
40787;SDS011;26497;52.494;7.546;2023-12-20T08:01:22;197.27;;;180.05;;
40787;SDS011;26497;52.494;7.546;2023-12-20T08:03:49;194.77;;;180.82;;
40787;SDS011;26497;52.494;7.546;2023-12-20T08:06:18;193.50;;;178.82;;
40787;SDS011;26497;52.494;7.546;2023-12-20T08:08:45;185.45;;;169.68;;
40787;SDS011;26497;52.494;7.546;2023-12-20T08:11:12;192.55;;;175.82;;
40787;SDS011;26497;52.494;7.546;2023-12-20T08:13:39;188.48;;;173.45;;
40787;SDS011;26497;52.494;7.546;2023-12-20T08:16:06;187.55;;;173.60;;
40787;SDS011;26497;52.494;7.546;2023-12-20T08:18:34;185.98;;;172.18;;
40787;SDS011;26497;52.494;7.546;2023-12-20T08:21:01;194.77;;;179.55;;
40787;SDS011;26497;52.494;7.546;2023-12-20T08:23:29;193.02;;;178.65;;
40787;SDS011;26497;52.494;7.546;2023-12-20T08:25:57;193.75;;;178.77;;
40787;SDS011;26497;52.494;7.546;2023-12-20T08:28:24;194.10;;;178.65;;
40787;SDS011;26497;52.494;7.546;2023-12-20T08:30:51;191.80;;;176.10;;
40787;SDS011;26497;52.494;7.546;2023-12-20T08:33:18;190.73;;;175.30;;
40787;SDS011;26497;52.494;7.546;2023-12-20T08:35:45;182.18;;;169.48;;
40787;SDS011;26497;52.494;7.546;2023-12-20T08:38:12;184.90;;;168.70;;
40787;SDS011;26497;52.494;7.546;2023-12-20T08:40:41;178.07;;;164.85;;
40787;SDS011;26497;52.494;7.546;2023-12-20T08:43:08;182.43;;;168.77;;
40787;SDS011;26497;52.494;7.546;2023-12-20T08:45:36;182.57;;;169.07;;
40787;SDS011;26497;52.494;7.546;2023-12-20T08:48:05;186.48;;;171.15;;
40787;SDS011;26497;52.494;7.546;2023-12-20T08:50:33;179.23;;;165.77;;
40787;SDS011;26497;52.494;7.546;2023-12-20T08:53:00;188.10;;;171.63;;
40787;SDS011;26497;52.494;7.546;2023-12-20T08:55:27;177.00;;;163.68;;
40787;SDS011;26497;52.494;7.546;2023-12-20T08:57:58;182.90;;;169.73;;
40787;SDS011;26497;52.494;7.546;2023-12-20T09:00:25;181.80;;;167.73;;
40787;SDS011;26497;52.494;7.546;2023-12-20T09:02:52;186.85;;;172.48;;
40787;SDS011;26497;52.494;7.546;2023-12-20T09:05:20;184.18;;;171.18;;
40787;SDS011;26497;52.494;7.546;2023-12-20T09:07:47;183.73;;;168.60;;
40787;SDS011;26497;52.494;7.546;2023-12-20T09:10:14;188.18;;;173.60;;
40787;SDS011;26497;52.494;7.546;2023-12-20T09:12:47;181.57;;;167.73;;
40787;SDS011;26497;52.494;7.546;2023-12-20T09:15:15;187.77;;;174.18;;
40787;SDS011;26497;52.494;7.546;2023-12-20T09:17:42;192.00;;;177.88;;
40787;SDS011;26497;52.494;7.546;2023-12-20T09:20:09;193.00;;;178.93;;
40787;SDS011;26497;52.494;7.546;2023-12-20T09:22:38;192.55;;;178.88;;
40787;SDS011;26497;52.494;7.546;2023-12-20T09:25:07;187.75;;;174.77;;
40787;SDS011;26497;52.494;7.546;2023-12-20T09:27:35;187.43;;;173.32;;
40787;SDS011;26497;52.494;7.546;2023-12-20T09:30:03;187.00;;;172.43;;
40787;SDS011;26497;52.494;7.546;2023-12-20T09:32:32;192.80;;;178.35;;
40787;SDS011;26497;52.494;7.546;2023-12-20T09:34:59;189.60;;;175.93;;
40787;SDS011;26497;52.494;7.546;2023-12-20T09:37:27;190.07;;;175.50;;
40787;SDS011;26497;52.494;7.546;2023-12-20T09:39:54;186.13;;;171.63;;
40787;SDS011;26497;52.494;7.546;2023-12-20T09:42:22;189.05;;;174.93;;
40787;SDS011;26497;52.494;7.546;2023-12-20T09:44:58;190.45;;;175.40;;
40787;SDS011;26497;52.494;7.546;2023-12-20T09:47:28;190.65;;;176.30;;
40787;SDS011;26497;52.494;7.546;2023-12-20T09:49:56;193.65;;;177.73;;
40787;SDS011;26497;52.494;7.546;2023-12-20T09:52:24;187.77;;;173.70;;
40787;SDS011;26497;52.494;7.546;2023-12-20T09:54:51;186.27;;;173.10;;
40787;SDS011;26497;52.494;7.546;2023-12-20T09:57:20;191.48;;;176.38;;
40787;SDS011;26497;52.494;7.546;2023-12-20T09:59:47;193.48;;;179.40;;
40787;SDS011;26497;52.494;7.546;2023-12-20T10:02:14;195.55;;;181.07;;
40787;SDS011;26497;52.494;7.546;2023-12-20T10:04:47;183.27;;;170.05;;
40787;SDS011;26497;52.494;7.546;2023-12-20T10:07:16;180.00;;;167.50;;
40787;SDS011;26497;52.494;7.546;2023-12-20T10:09:43;185.50;;;171.57;;
40787;SDS011;26497;52.494;7.546;2023-12-20T10:12:11;179.55;;;167.63;;
40787;SDS011;26497;52.494;7.546;2023-12-20T10:14:38;182.18;;;168.82;;
40787;SDS011;26497;52.494;7.546;2023-12-20T10:17:06;186.05;;;171.15;;
40787;SDS011;26497;52.494;7.546;2023-12-20T10:19:33;177.70;;;165.50;;
40787;SDS011;26497;52.494;7.546;2023-12-20T10:22:00;172.45;;;160.45;;
40787;SDS011;26497;52.494;7.546;2023-12-20T10:24:32;174.43;;;160.25;;
40787;SDS011;26497;52.494;7.546;2023-12-20T10:27:02;182.50;;;168.82;;
40787;SDS011;26497;52.494;7.546;2023-12-20T10:29:33;179.52;;;166.60;;
40787;SDS011;26497;52.494;7.546;2023-12-20T10:34:57;166.30;;;154.07;;
40787;SDS011;26497;52.494;7.546;2023-12-20T10:37:24;157.07;;;145.80;;
40787;SDS011;26497;52.494;7.546;2023-12-20T10:39:53;153.35;;;141.18;;
40787;SDS011;26497;52.494;7.546;2023-12-20T10:42:22;149.48;;;139.02;;
40787;SDS011;26497;52.494;7.546;2023-12-20T10:44:52;110.28;;;101.88;;
40787;SDS011;26497;52.494;7.546;2023-12-20T10:47:20;57.15;;;51.70;;
40787;SDS011;26497;52.494;7.546;2023-12-20T10:49:48;55.83;;;49.90;;
40787;SDS011;26497;52.494;7.546;2023-12-20T10:52:18;76.15;;;67.45;;
40787;SDS011;26497;52.494;7.546;2023-12-20T10:54:49;87.80;;;79.50;;
40787;SDS011;26497;52.494;7.546;2023-12-20T10:57:18;92.60;;;84.05;;
40787;SDS011;26497;52.494;7.546;2023-12-20T10:59:46;82.93;;;75.25;;
40787;SDS011;26497;52.494;7.546;2023-12-20T11:02:17;70.72;;;64.55;;
40787;SDS011;26497;52.494;7.546;2023-12-20T11:04:47;61.17;;;56.33;;
40787;SDS011;26497;52.494;7.546;2023-12-20T11:07:21;64.93;;;59.83;;
40787;SDS011;26497;52.494;7.546;2023-12-20T11:09:57;65.15;;;61.17;;
40787;SDS011;26497;52.494;7.546;2023-12-20T11:12:35;60.15;;;55.55;;
40787;SDS011;26497;52.494;7.546;2023-12-20T11:15:09;52.00;;;47.20;;
40787;SDS011;26497;52.494;7.546;2023-12-20T11:17:38;47.63;;;43.95;;
40787;SDS011;26497;52.494;7.546;2023-12-20T11:20:07;45.75;;;42.17;;
40787;SDS011;26497;52.494;7.546;2023-12-20T11:22:38;46.50;;;42.60;;
40787;SDS011;26497;52.494;7.546;2023-12-20T11:25:18;52.67;;;48.63;;
40787;SDS011;26497;52.494;7.546;2023-12-20T11:30:43;69.75;;;64.43;;
40787;SDS011;26497;52.494;7.546;2023-12-20T11:33:13;78.05;;;72.15;;
40787;SDS011;26497;52.494;7.546;2023-12-20T11:35:41;87.82;;;82.00;;
40787;SDS011;26497;52.494;7.546;2023-12-20T11:38:08;89.97;;;84.13;;
40787;SDS011;26497;52.494;7.546;2023-12-20T11:40:36;101.43;;;94.20;;
40787;SDS011;26497;52.494;7.546;2023-12-20T11:43:03;105.20;;;97.25;;
40787;SDS011;26497;52.494;7.546;2023-12-20T11:45:31;112.15;;;103.55;;
40787;SDS011;26497;52.494;7.546;2023-12-20T11:48:00;108.57;;;101.53;;
40787;SDS011;26497;52.494;7.546;2023-12-20T11:50:29;105.72;;;99.00;;
40787;SDS011;26497;52.494;7.546;2023-12-20T11:52:57;103.15;;;96.55;;
40787;SDS011;26497;52.494;7.546;2023-12-20T11:55:26;104.45;;;97.22;;
40787;SDS011;26497;52.494;7.546;2023-12-20T11:57:53;100.72;;;94.05;;
40787;SDS011;26497;52.494;7.546;2023-12-20T12:00:21;95.88;;;90.03;;
40787;SDS011;26497;52.494;7.546;2023-12-20T12:02:59;88.40;;;82.65;;
40787;SDS011;26497;52.494;7.546;2023-12-20T12:05:30;80.18;;;75.25;;
40787;SDS011;26497;52.494;7.546;2023-12-20T12:07:58;70.25;;;66.22;;
40787;SDS011;26497;52.494;7.546;2023-12-20T12:10:25;60.83;;;57.08;;
40787;SDS011;26497;52.494;7.546;2023-12-20T12:12:52;57.00;;;52.35;;
40787;SDS011;26497;52.494;7.546;2023-12-20T12:15:21;51.35;;;47.70;;
40787;SDS011;26497;52.494;7.546;2023-12-20T12:17:52;48.42;;;44.97;;
40787;SDS011;26497;52.494;7.546;2023-12-20T12:20:25;46.70;;;42.55;;
40787;SDS011;26497;52.494;7.546;2023-12-20T12:23:00;45.00;;;40.80;;
40787;SDS011;26497;52.494;7.546;2023-12-20T12:25:31;42.42;;;39.28;;
40787;SDS011;26497;52.494;7.546;2023-12-20T12:28:01;44.78;;;40.85;;
40787;SDS011;26497;52.494;7.546;2023-12-20T12:30:29;46.50;;;42.42;;
40787;SDS011;26497;52.494;7.546;2023-12-20T12:32:56;44.45;;;40.35;;
40787;SDS011;26497;52.494;7.546;2023-12-20T12:35:23;48.70;;;44.85;;
40787;SDS011;26497;52.494;7.546;2023-12-20T12:37:52;48.97;;;45.53;;
40787;SDS011;26497;52.494;7.546;2023-12-20T12:40:19;55.22;;;50.90;;
40787;SDS011;26497;52.494;7.546;2023-12-20T12:42:47;61.55;;;56.97;;
40787;SDS011;26497;52.494;7.546;2023-12-20T12:45:14;71.15;;;65.97;;
40787;SDS011;26497;52.494;7.546;2023-12-20T12:47:41;85.22;;;79.93;;
40787;SDS011;26497;52.494;7.546;2023-12-20T12:50:08;106.97;;;100.55;;
40787;SDS011;26497;52.494;7.546;2023-12-20T12:52:38;152.77;;;143.85;;
40787;SDS011;26497;52.494;7.546;2023-12-20T12:55:05;206.20;;;194.10;;
40787;SDS011;26497;52.494;7.546;2023-12-20T12:57:33;270.92;;;255.23;;
40787;SDS011;26497;52.494;7.546;2023-12-20T13:00:00;307.15;;;289.27;;
40787;SDS011;26497;52.494;7.546;2023-12-20T13:02:29;320.52;;;301.55;;
40787;SDS011;26497;52.494;7.546;2023-12-20T13:04:58;325.20;;;306.63;;
40787;SDS011;26497;52.494;7.546;2023-12-20T13:07:27;327.92;;;308.42;;
40787;SDS011;26497;52.494;7.546;2023-12-20T13:09:56;328.55;;;309.85;;
40787;SDS011;26497;52.494;7.546;2023-12-20T13:12:23;328.58;;;309.83;;
40787;SDS011;26497;52.494;7.546;2023-12-20T13:14:50;326.00;;;307.63;;
40787;SDS011;26497;52.494;7.546;2023-12-20T13:17:19;330.27;;;310.80;;
40787;SDS011;26497;52.494;7.546;2023-12-20T13:19:48;326.08;;;307.33;;
40787;SDS011;26497;52.494;7.546;2023-12-20T13:22:15;314.88;;;296.73;;
40787;SDS011;26497;52.494;7.546;2023-12-20T13:24:43;316.70;;;298.00;;
40787;SDS011;26497;52.494;7.546;2023-12-20T13:27:12;317.63;;;299.20;;
40787;SDS011;26497;52.494;7.546;2023-12-20T13:29:39;321.50;;;303.45;;
40787;SDS011;26497;52.494;7.546;2023-12-20T13:32:07;321.88;;;303.83;;
40787;SDS011;26497;52.494;7.546;2023-12-20T13:34:34;325.45;;;306.23;;
40787;SDS011;26497;52.494;7.546;2023-12-20T13:37:02;329.25;;;310.05;;
40787;SDS011;26497;52.494;7.546;2023-12-20T13:39:31;329.77;;;311.30;;
40787;SDS011;26497;52.494;7.546;2023-12-20T13:41:59;332.25;;;313.35;;
40787;SDS011;26497;52.494;7.546;2023-12-20T13:44:28;341.17;;;321.23;;
40787;SDS011;26497;52.494;7.546;2023-12-20T13:46:55;338.77;;;319.88;;
40787;SDS011;26497;52.494;7.546;2023-12-20T13:49:23;339.73;;;320.65;;
40787;SDS011;26497;52.494;7.546;2023-12-20T13:51:50;341.50;;;322.20;;
40787;SDS011;26497;52.494;7.546;2023-12-20T13:54:19;342.48;;;323.13;;
40787;SDS011;26497;52.494;7.546;2023-12-20T13:56:47;344.25;;;324.58;;
40787;SDS011;26497;52.494;7.546;2023-12-20T13:59:15;350.10;;;330.20;;
40787;SDS011;26497;52.494;7.546;2023-12-20T14:01:44;341.40;;;322.27;;
40787;SDS011;26497;52.494;7.546;2023-12-20T14:04:11;332.27;;;313.05;;
40787;SDS011;26497;52.494;7.546;2023-12-20T14:06:40;328.52;;;309.95;;
40787;SDS011;26497;52.494;7.546;2023-12-20T14:09:09;312.88;;;294.92;;